Time;durP1;ratioP1;P1;durP2;ratioP2;P2;SDS_P1;SDS_P2;PMS_P1;PMS_P2;Temp;Humidity;BMP_temperature;BMP_pressure;BME280_temperature;BME280_humidity;BME280_pressure;Samples;Min_cycle;Max_cycle;Signal;HPM_P1;HPM_P2
2021/07/20 05:53:55;;;;;;;10.23;7.53;;;;;;;;;;10597941;27;20299;-82
2021/07/20 05:58:57;;;;;;;11.85;7.55;;;;;;;;;;10597629;28;20053;-82
2021/07/20 06:03:59;;;;;;;11.13;7.13;;;;;;;;;;10594455;28;20026;-82
2021/07/20 06:09:02;;;;;;;10.82;6.50;;;;;;;;;;10602160;28;20385;-80
2021/07/20 06:14:03;;;;;;;11.10;8.55;;;;;;;;;;10599857;28;20020;-82
2021/07/20 06:19:05;;;;;;;10.25;6.35;;;;;;;;;;10596113;28;20020;-82
2021/07/20 06:24:06;;;;;;;12.07;8.52;;;;;;;;;;10593635;28;20028;-82
2021/07/20 06:29:09;;;;;;;7.70;5.80;;;;;;;;;;10593752;28;20039;-82
2021/07/20 06:34:12;;;;;;;8.82;6.07;;;;;;;;;;10594554;28;20105;-82
2021/07/20 06:39:13;;;;;;;7.75;5.78;;;;;;;;;;10592465;28;20350;-82
2021/07/20 06:44:15;;;;;;;7.18;5.43;;;;;;;;;;10591113;28;20049;-82
2021/07/20 06:49:18;;;;;;;10.10;6.63;;;;;;;;;;10593775;28;20864;-82
2021/07/20 06:54:19;;;;;;;10.10;6.20;;;;;;;;;;10592956;28;20038;-82
2021/07/20 06:59:20;;;;;;;9.90;6.20;;;;;;;;;;10592418;28;20020;-82
2021/07/20 07:04:32;;;;;;;8.40;5.65;;;;;;;;;;10569435;28;20077;-82
2021/07/20 07:09:33;;;;;;;12.05;6.65;;;;;;;;;;10561852;28;20494;-83
2021/07/20 07:14:35;;;;;;;9.02;5.95;;;;;;;;;;10553745;28;20411;-83
2021/07/20 07:19:36;;;;;;;9.73;6.20;;;;;;;;;;10552722;28;20394;-82
2021/07/20 07:24:38;;;;;;;8.90;5.97;;;;;;;;;;10554380;28;20031;-83
2021/07/20 07:29:39;;;;;;;7.32;5.65;;;;;;;;;;10556786;28;20185;-83
2021/07/20 07:34:42;;;;;;;9.57;6.03;;;;;;;;;;10555647;28;20039;-84
2021/07/20 07:39:44;;;;;;;8.32;5.80;;;;;;;;;;10555575;28;20024;-84
2021/07/20 07:44:47;;;;;;;8.27;5.78;;;;;;;;;;10555976;28;20381;-83
2021/07/20 07:49:48;;;;;;;7.32;5.60;;;;;;;;;;10555815;28;20549;-81
2021/07/20 07:54:50;;;;;;;9.23;6.18;;;;;;;;;;10552900;28;20054;-81
2021/07/20 07:59:54;;;;;;;8.90;6.32;;;;;;;;;;10554116;28;20020;-83
2021/07/20 08:04:56;;;;;;;9.77;6.63;;;;;;;;;;10552269;28;20096;-82
2021/07/20 08:09:57;;;;;;;9.40;6.55;;;;;;;;;;10552743;28;20024;-83
2021/07/20 08:14:58;;;;;;;8.50;6.25;;;;;;;;;;10551089;28;20028;-81
2021/07/20 08:19:59;;;;;;;8.30;6.80;;;;;;;;;;10550049;28;20190;-81
2021/07/20 08:25:03;;;;;;;9.85;7.25;;;;;;;;;;10550817;28;20067;-82
2021/07/20 08:30:05;;;;;;;10.10;6.13;;;;;;;;;;10555365;28;20042;-83
2021/07/20 08:35:07;;;;;;;8.60;6.55;;;;;;;;;;10551105;28;20089;-82
2021/07/20 08:40:15;;;;;;;10.00;7.03;;;;;;;;;;10549113;28;20028;-82
2021/07/20 08:45:26;;;;;;;8.85;6.70;;;;;;;;;;10551831;28;20026;-82
2021/07/20 08:50:40;;;;;;;9.77;6.45;;;;;;;;;;10552065;28;20430;-83
2021/07/20 08:55:44;;;;;;;8.40;6.82;;;;;;;;;;10550293;28;20057;-82
2021/07/20 09:00:47;;;;;;;9.32;6.70;;;;;;;;;;10550452;28;20028;-84
2021/07/20 09:05:50;;;;;;;9.15;6.80;;;;;;;;;;10550749;28;20131;-81
2021/07/20 09:10:55;;;;;;;9.25;6.95;;;;;;;;;;10543483;28;20111;-80
2021/07/20 09:16:03;;;;;;;8.10;6.60;;;;;;;;;;10547558;28;20073;-79
2021/07/20 09:21:06;;;;;;;10.75;7.07;;;;;;;;;;10542321;28;20063;-80
2021/07/20 09:26:07;;;;;;;10.75;6.88;;;;;;;;;;10541473;28;20020;-80
2021/07/20 09:31:25;;;;;;;9.10;6.40;;;;;;;;;;10541607;28;20115;-80
2021/07/20 09:36:29;;;;;;;9.13;6.38;;;;;;;;;;10543106;28;20076;-84
2021/07/20 09:41:51;;;;;;;7.47;6.45;;;;;;;;;;10549514;28;20063;-82
2021/07/20 09:46:55;;;;;;;7.57;6.10;;;;;;;;;;10551215;28;20047;-86
2021/07/20 09:52:02;;;;;;;9.32;6.45;;;;;;;;;;10552860;28;20032;-80
2021/07/20 09:57:17;;;;;;;10.30;6.97;;;;;;;;;;10546000;28;20060;-79
2021/07/20 10:02:37;;;;;;;8.07;6.15;;;;;;;;;;10545471;28;20106;-83
2021/07/20 10:07:38;;;;;;;;;;;;;;;;;;10544269;28;20035;-81
2021/07/20 10:12:39;;;;;;;;;;;;;;;;;;10551809;28;19908;-81
2021/07/20 10:17:50;;;;;;;8.85;6.63;;;;;;;;;;10549054;28;19927;-83
2021/07/20 10:22:51;;;;;;;;;;;;;;;;;;10549484;28;20108;-82
2021/07/20 10:27:52;;;;;;;;;;;;;;;;;;10547735;28;19926;-82
2021/07/20 10:32:52;;;;;;;;;;;;;;;;;;10546750;28;19904;-81
2021/07/20 10:37:53;;;;;;;;;;;;;;;;;;10550264;28;19904;-82
2021/07/20 10:42:55;;;;;;;;;;;;;;;;;;10559656;28;20003;-82
2021/07/20 10:48:01;;;;;;;12.43;8.15;;;;;;;;;;10553257;28;19904;-79
2021/07/20 10:53:07;;;;;;;9.18;6.80;;;;;;;;;;10549577;28;20032;-79
2021/07/20 10:58:11;;;;;;;9.00;6.97;;;;;;;;;;10553898;28;20024;-81
2021/07/20 11:03:16;;;;;;;8.85;6.25;;;;;;;;;;10554038;28;20411;-82
2021/07/20 11:08:18;;;;;;;8.75;6.38;;;;;;;;;;10554733;28;20020;-81
2021/07/20 11:13:28;;;;;;;7.88;6.28;;;;;;;;;;10562399;28;20024;-82
2021/07/20 11:18:32;;;;;;;7.97;6.20;;;;;;;;;;10557425;28;20024;-83
2021/07/20 11:23:41;;;;;;;8.63;6.18;;;;;;;;;;10558753;28;20073;-83
2021/07/20 11:28:44;;;;;;;7.55;5.78;;;;;;;;;;10560748;28;20019;-83
2021/07/20 11:34:03;;;;;;;8.05;5.85;;;;;;;;;;10556196;28;20024;-84
2021/07/20 11:39:04;;;;;;;7.68;5.82;;;;;;;;;;10518866;22;20041;-83
2021/07/20 11:44:16;;;;;;;6.85;5.63;;;;;;;;;;10428917;28;20087;-87
2021/07/20 11:49:38;;;;;;;7.65;6.03;;;;;;;;;;10426243;28;20036;-87
2021/07/20 11:55:02;;;;;;;7.22;5.50;;;;;;;;;;10404110;28;20042;-85
2021/07/20 12:00:06;;;;;;;9.30;5.72;;;;;;;;;;10410528;28;20072;-84
2021/07/20 12:05:11;;;;;;;7.57;5.65;;;;;;;;;;10436527;28;20470;-84
2021/07/20 12:10:27;;;;;;;7.05;5.25;;;;;;;;;;10418825;28;20033;-86
2021/07/20 12:15:28;;;;;;;6.65;5.53;;;;;;;;;;10413163;28;20084;-84
2021/07/20 12:20:29;;;;;;;7.78;5.10;;;;;;;;;;10412443;28;20021;-83
2021/07/20 12:25:31;;;;;;;8.50;6.47;;;;;;;;;;10417759;28;20021;-85
2021/07/20 12:30:32;;;;;;;7.35;5.40;;;;;;;;;;10415448;28;20026;-84
2021/07/20 12:35:37;;;;;;;8.88;5.45;;;;;;;;;;10438376;28;20033;-83
2021/07/20 12:40:39;;;;;;;6.78;4.97;;;;;;;;;;10411995;28;20040;-85
2021/07/20 12:45:43;;;;;;;6.88;5.40;;;;;;;;;;10412102;28;20361;-85
2021/07/20 12:50:44;;;;;;;8.15;5.80;;;;;;;;;;10413724;28;20021;-83
2021/07/20 12:55:46;;;;;;;6.88;5.00;;;;;;;;;;10415601;28;20541;-82
2021/07/20 13:00:48;;;;;;;6.75;5.40;;;;;;;;;;10412196;28;20029;-85
2021/07/20 13:05:50;;;;;;;7.97;6.50;;;;;;;;;;10409857;28;20032;-83
2021/07/20 13:10:55;;;;;;;8.38;5.10;;;;;;;;;;10408074;28;20036;-85
2021/07/20 13:15:58;;;;;;;7.05;5.45;;;;;;;;;;10411143;28;20028;-87
2021/07/20 13:21:03;;;;;;;7.07;5.65;;;;;;;;;;10421023;28;20026;-83
2021/07/20 13:26:05;;;;;;;6.93;5.07;;;;;;;;;;10420867;28;20084;-86
2021/07/20 13:31:15;;;;;;;5.55;4.50;;;;;;;;;;10413319;28;20061;-85
2021/07/20 13:36:18;;;;;;;7.93;5.55;;;;;;;;;;10418969;28;20131;-83
2021/07/20 13:41:20;;;;;;;7.35;4.97;;;;;;;;;;10415544;28;20091;-82
2021/07/20 13:46:23;;;;;;;7.10;5.32;;;;;;;;;;10412871;28;20029;-87
2021/07/20 13:51:26;;;;;;;8.23;5.28;;;;;;;;;;10407084;28;20033;-88
2021/07/20 13:56:29;;;;;;;7.72;5.35;;;;;;;;;;10406209;28;20025;-87
2021/07/20 14:01:31;;;;;;;7.25;4.78;;;;;;;;;;10413087;28;20388;-84
2021/07/20 14:06:36;;;;;;;7.15;5.13;;;;;;;;;;10409066;28;20372;-87
2021/07/20 14:11:38;;;;;;;7.05;5.22;;;;;;;;;;10410553;28;20025;-85
2021/07/20 14:16:40;;;;;;;6.65;5.55;;;;;;;;;;10417228;28;20029;-84
2021/07/20 14:21:45;;;;;;;7.85;5.40;;;;;;;;;;10423086;28;20029;-85
2021/07/20 14:26:49;;;;;;;6.88;5.25;;;;;;;;;;10424704;28;20029;-87
2021/07/20 14:31:50;;;;;;;6.30;4.97;;;;;;;;;;10430226;28;20029;-87
2021/07/20 14:36:55;;;;;;;6.63;4.93;;;;;;;;;;10420435;28;20030;-86
2021/07/20 14:42:26;;;;;;;7.85;5.45;;;;;;;;;;10415129;28;20037;-86
2021/07/20 14:47:27;;;;;;;;;;;;;;;;;;10403055;28;20395;-86
2021/07/20 14:52:48;;;;;;;8.70;5.93;;;;;;;;;;10427838;28;19905;-84
2021/07/20 16:22:20;;;;;;;9.95;7.75;;;;;;;;;;10484722;28;20040;-84
2021/07/20 16:27:21;;;;;;;6.13;5.18;;;;;;;;;;10470348;28;20465;-85
2021/07/20 16:32:22;;;;;;;7.47;5.32;;;;;;;;;;10454585;28;20033;-84
2021/07/20 16:37:23;;;;;;;7.72;4.85;;;;;;;;;;10455047;28;20033;-85
2021/07/20 16:42:25;;;;;;;6.55;5.03;;;;;;;;;;10466535;28;20439;-85
2021/07/20 16:47:28;;;;;;;6.85;5.00;;;;;;;;;;10449617;28;20039;-84
2021/07/20 16:52:29;;;;;;;6.30;4.95;;;;;;;;;;10457125;28;20069;-84
2021/07/20 16:57:35;;;;;;;8.23;5.10;;;;;;;;;;10456352;28;20048;-85
2021/07/20 17:02:52;;;;;;;6.03;4.60;;;;;;;;;;10453229;28;20033;-84
2021/07/20 17:07:55;;;;;;;6.90;4.50;;;;;;;;;;10451952;28;20037;-86
2021/07/20 17:12:56;;;;;;;6.68;4.88;;;;;;;;;;10454283;28;20067;-85
2021/07/20 17:18:00;;;;;;;6.10;4.55;;;;;;;;;;10450777;28;20128;-84
2021/07/20 17:23:01;;;;;;;6.57;4.43;;;;;;;;;;10450977;28;20375;-85
2021/07/20 17:28:11;;;;;;;9.43;4.75;;;;;;;;;;10466894;28;20590;-84
2021/07/20 17:33:19;;;;;;;6.00;4.55;;;;;;;;;;10460558;28;20049;-85
2021/07/20 17:38:25;;;;;;;8.38;4.88;;;;;;;;;;10462929;22;20048;-87
2021/07/20 17:43:27;;;;;;;5.38;4.07;;;;;;;;;;10448033;28;20478;-86
2021/07/20 17:48:28;;;;;;;5.43;4.32;;;;;;;;;;10475692;28;20060;-87
2021/07/20 17:53:32;;;;;;;6.22;4.90;;;;;;;;;;10490890;28;20131;-87
2021/07/20 17:58:33;;;;;;;6.68;4.00;;;;;;;;;;10513644;28;20025;-86
2021/07/20 18:03:34;;;;;;;6.05;3.92;;;;;;;;;;10529353;28;20032;-86
2021/07/20 18:08:35;;;;;;;5.13;3.83;;;;;;;;;;10519643;28;20474;-87
2021/07/20 18:13:36;;;;;;;6.28;4.40;;;;;;;;;;10490899;28;20033;-87
2021/07/20 18:18:37;;;;;;;5.80;4.22;;;;;;;;;;10494183;28;20036;-86
2021/07/20 18:23:38;;;;;;;5.88;4.18;;;;;;;;;;10493655;28;20488;-86
2021/07/20 18:28:39;;;;;;;5.03;3.60;;;;;;;;;;10492616;28;20056;-86
2021/07/20 18:33:40;;;;;;;5.55;3.88;;;;;;;;;;10491900;28;20402;-87
2021/07/20 18:38:42;;;;;;;6.47;4.20;;;;;;;;;;10491814;28;20063;-87
2021/07/20 18:43:46;;;;;;;7.07;3.53;;;;;;;;;;10493070;28;20028;-86
2021/07/20 18:48:47;;;;;;;4.72;3.53;;;;;;;;;;10490625;28;20024;-86
2021/07/20 18:53:48;;;;;;;8.55;3.78;;;;;;;;;;10490139;28;20159;-87
2021/07/20 18:58:49;;;;;;;4.50;3.70;;;;;;;;;;10500369;28;20474;-84
2021/07/20 19:03:50;;;;;;;5.35;4.13;;;;;;;;;;10513514;28;20094;-85
2021/07/20 19:08:51;;;;;;;5.90;3.83;;;;;;;;;;10530188;28;20386;-85
2021/07/20 19:13:52;;;;;;;6.97;4.50;;;;;;;;;;10506120;28;20036;-85
2021/07/20 19:18:53;;;;;;;4.53;3.20;;;;;;;;;;10499411;28;20033;-84
2021/07/20 19:23:54;;;;;;;7.13;3.80;;;;;;;;;;10491852;28;20036;-86
2021/07/20 19:28:55;;;;;;;5.35;3.53;;;;;;;;;;10493713;28;20033;-86
2021/07/20 19:33:56;;;;;;;5.18;3.97;;;;;;;;;;10496480;28;20440;-87
2021/07/20 19:38:57;;;;;;;4.78;3.60;;;;;;;;;;10489979;28;20090;-87
2021/07/20 19:43:58;;;;;;;4.70;3.50;;;;;;;;;;10489190;28;20373;-87
2021/07/20 19:48:59;;;;;;;5.78;3.72;;;;;;;;;;10507230;28;20044;-86
2021/07/20 19:54:00;;;;;;;7.07;4.30;;;;;;;;;;10494234;28;20037;-86
2021/07/20 19:59:01;;;;;;;4.57;3.40;;;;;;;;;;10491587;28;20082;-85
2021/07/20 20:04:02;;;;;;;5.47;3.50;;;;;;;;;;10492383;28;20064;-86
2021/07/20 20:09:03;;;;;;;4.70;3.45;;;;;;;;;;10492357;28;20052;-86
2021/07/20 20:14:04;;;;;;;4.95;3.65;;;;;;;;;;10492528;28;20390;-86
